createdAt,value
2023-05-24T00:02:43.532Z,1.90
2023-05-24T00:12:46.499Z,2.30
2023-05-24T00:22:51.688Z,1.40
2023-05-24T00:32:54.604Z,1.50
2023-05-24T00:42:58.750Z,1.60
2023-05-24T00:53:04.143Z,1.43
2023-05-24T01:03:08.696Z,1.33
2023-05-24T01:13:19.923Z,1.50
2023-05-24T01:23:38.473Z,1.50
2023-05-24T01:33:43.747Z,2.40
2023-05-24T01:43:54.890Z,1.77
2023-05-24T01:54:01.358Z,1.40
2023-05-24T02:04:04.765Z,1.33
2023-05-24T02:14:09.294Z,1.63
2023-05-24T02:24:12.775Z,1.60
2023-05-24T02:34:17.630Z,1.40
2023-05-24T02:44:20.809Z,1.70
2023-05-24T02:54:25.264Z,1.43
2023-05-24T03:04:29.198Z,1.67
2023-05-24T03:14:33.807Z,1.73
2023-05-24T03:24:38.448Z,1.67
2023-05-24T03:34:43.456Z,1.83
2023-05-24T03:44:47.350Z,1.50
2023-05-24T03:54:51.852Z,1.50
2023-05-24T04:04:54.740Z,2.37
2023-05-24T04:14:59.604Z,2.37
2023-05-24T04:25:02.791Z,2.27
2023-05-24T04:35:09.737Z,2.30
2023-05-24T04:45:12.951Z,2.10
2023-05-24T04:55:17.194Z,3.20
2023-05-24T05:05:21.353Z,2.07
2023-05-24T05:15:25.990Z,2.53
2023-05-24T05:25:31.078Z,2.73
2023-05-24T05:35:35.479Z,2.57
2023-05-24T05:45:38.720Z,2.83
2023-05-24T05:55:43.064Z,3.17
2023-05-24T06:05:46.715Z,2.73
2023-05-24T06:15:52.901Z,2.97
2023-05-24T06:25:56.221Z,3.80
2023-05-24T06:36:00.702Z,3.20
2023-05-24T06:46:03.741Z,3.20
2023-05-24T06:56:09.519Z,4.23
2023-05-24T07:06:14.348Z,4.53
2023-05-24T07:16:19.005Z,3.70
2023-05-24T07:26:22.201Z,5.13
2023-05-24T07:36:27.211Z,3.53
2023-05-24T07:46:30.303Z,3.73
2023-05-24T07:56:34.921Z,3.93
2023-05-24T08:06:38.238Z,2.40
2023-05-24T08:16:42.604Z,3.07
2023-05-24T08:26:45.589Z,2.10
2023-05-24T08:36:50.164Z,2.70
2023-05-24T08:46:54.618Z,2.13
2023-05-24T08:57:01.215Z,2.33
2023-05-24T09:07:04.941Z,2.70
2023-05-24T09:17:10.903Z,2.47
2023-05-24T09:27:16.254Z,2.53
2023-05-24T09:37:28.235Z,2.63
2023-05-24T09:47:35.072Z,2.60
2023-05-24T09:57:39.462Z,3.57
2023-05-24T10:07:42.716Z,2.30
2023-05-24T10:17:46.936Z,2.33
2023-05-24T10:27:52.843Z,2.93
2023-05-24T10:37:57.561Z,3.07
2023-05-24T10:48:03.358Z,3.07
2023-05-24T10:58:08.664Z,4.10
2023-05-24T11:08:11.969Z,4.03
2023-05-24T11:18:17.606Z,5.20
2023-05-24T11:28:20.955Z,6.77
2023-05-24T11:38:27.828Z,6.60
2023-05-24T11:48:32.099Z,5.93
2023-05-24T11:58:46.047Z,6.73
2023-05-24T12:08:49.661Z,7.17
2023-05-24T12:19:05.358Z,4.73
2023-05-24T12:29:13.056Z,4.97
2023-05-24T12:39:20.752Z,5.30
2023-05-24T12:49:23.529Z,5.00
2023-05-24T12:59:29.127Z,4.60
2023-05-24T13:09:33.509Z,3.73
2023-05-24T13:19:37.761Z,3.33
2023-05-24T13:29:52.617Z,2.60
2023-05-24T13:40:04.399Z,2.53
2023-05-24T13:50:08.772Z,2.87
2023-05-24T14:00:14.636Z,2.63
2023-05-24T14:10:19.319Z,2.53
2023-05-24T14:20:25.802Z,2.47
2023-05-24T14:31:29.653Z,1.90
2023-05-24T14:41:36.245Z,2.90
2023-05-24T14:51:39.371Z,2.30
2023-05-24T15:01:43.572Z,2.23
2023-05-24T15:11:46.864Z,2.27
2023-05-24T15:21:51.131Z,2.30
2023-05-24T15:31:54.331Z,3.10
2023-05-24T15:41:58.763Z,2.43
2023-05-24T15:52:04.381Z,2.40
2023-05-24T16:02:09.780Z,2.47
2023-05-24T16:12:12.699Z,2.37
2023-05-24T16:22:17.081Z,2.40
2023-05-24T16:32:20.034Z,2.67
2023-05-24T16:42:24.396Z,2.33
2023-05-24T16:52:27.726Z,2.13
2023-05-24T17:02:32.317Z,2.00
2023-05-24T17:12:35.948Z,2.13
2023-05-24T17:22:40.182Z,2.50
2023-05-24T17:32:43.282Z,2.50
2023-05-24T17:42:47.717Z,2.13
2023-05-24T17:52:50.906Z,2.20
2023-05-24T18:02:55.283Z,2.53
2023-05-24T18:12:58.677Z,2.47
2023-05-24T18:23:03.120Z,4.40
2023-05-24T18:33:08.408Z,2.47
2023-05-24T18:43:13.199Z,5.03
2023-05-24T18:53:16.385Z,2.70
2023-05-24T19:03:22.362Z,3.30
2023-05-24T19:13:25.986Z,3.80
2023-05-24T19:23:30.282Z,3.87
2023-05-24T19:33:33.109Z,3.40
2023-05-24T19:43:37.565Z,4.07
2023-05-24T19:53:40.479Z,3.80
2023-05-24T20:03:48.677Z,3.27
2023-05-24T20:23:58.163Z,2.70
2023-05-24T20:34:01.737Z,3.57
2023-05-24T20:44:06.117Z,2.83
2023-05-24T20:54:09.238Z,2.73
2023-05-24T21:04:14.239Z,2.60
2023-05-24T21:14:17.305Z,2.73
2023-05-24T21:24:21.722Z,2.90
2023-05-24T21:34:24.962Z,3.27
2023-05-24T21:44:29.777Z,3.07
2023-05-24T21:54:32.948Z,3.00
2023-05-24T22:04:37.469Z,3.63
2023-05-24T22:14:40.961Z,3.67
2023-05-24T22:24:47.101Z,3.10
2023-05-24T22:34:50.150Z,4.33
2023-05-24T22:44:54.473Z,3.33
2023-05-24T22:54:57.710Z,4.03
2023-05-24T23:05:03.277Z,3.90
2023-05-24T23:15:07.599Z,3.73
2023-05-24T23:25:12.337Z,5.70
2023-05-24T23:35:15.417Z,4.67
2023-05-24T23:45:19.748Z,4.60
2023-05-24T23:55:23.780Z,4.03
